createdAt,value
2022-12-12T00:34:16.832Z,33.2
2022-12-12T01:04:18.729Z,33.8
2022-12-12T01:35:20.752Z,33.8
2022-12-12T02:06:22.696Z,32.7
2022-12-12T02:36:24.569Z,32.2
2022-12-12T03:06:26.471Z,32.7
2022-12-12T03:36:28.245Z,33.2
2022-12-12T04:06:30.329Z,33.2
2022-12-12T04:47:32.591Z,31.1
2022-12-12T05:17:34.511Z,31.6
2022-12-12T05:47:36.422Z,31.6
2022-12-12T06:17:38.537Z,42.9
2022-12-12T06:47:40.513Z,31.6
2022-12-12T07:23:42.731Z,32.2
2022-12-12T07:54:44.753Z,30.6
2022-12-12T08:25:46.594Z,31.6
2022-12-12T08:55:48.343Z,30.6
2022-12-12T09:25:50.293Z,31.1
2022-12-12T09:55:52.182Z,30.6
2022-12-12T10:26:54.261Z,31.1
2022-12-12T10:57:56.063Z,31.1
2022-12-12T11:30:58.350Z,30.6
2022-12-12T12:02:00.002Z,31.6
2022-12-12T12:32:01.742Z,32.2
2022-12-12T12:50:02.807Z,32.2
2022-12-12T13:21:04.651Z,31.1
2022-12-12T13:41:06.000Z,31.6
2022-12-12T14:01:07.195Z,31.1
2022-12-12T14:32:09.143Z,32.2
2022-12-12T15:07:11.289Z,29.5
2022-12-12T15:37:13.125Z,28.4
2022-12-12T16:08:14.958Z,27.3
2022-12-12T16:38:16.859Z,26.8
2022-12-12T17:14:19.059Z,25.7
2022-12-12T17:44:20.940Z,25.7
2022-12-12T18:15:23.124Z,25.7
2022-12-12T18:49:24.980Z,24.6
2022-12-12T19:19:26.945Z,24.6
2022-12-12T19:49:28.846Z,25.2
2022-12-12T20:19:30.749Z,24.6
2022-12-12T20:50:32.600Z,25.7
2022-12-12T21:21:34.539Z,24.6
2022-12-12T21:51:36.458Z,24.1
2022-12-12T22:21:38.301Z,24.6
2022-12-12T22:52:40.408Z,24.1
2022-12-12T23:24:42.346Z,24.1
2022-12-12T23:54:44.138Z,23.6
